sensor_id;sensor_type;location;lat;lon;timestamp;temperature;humidity
22532;DHT22;11432;46.924;7.114;2022-08-21T00:00:47;17.70;99.90
22532;DHT22;11432;46.924;7.114;2022-08-21T00:03:14;17.70;99.90
22532;DHT22;11432;46.924;7.114;2022-08-21T00:05:48;17.70;99.90
22532;DHT22;11432;46.924;7.114;2022-08-21T00:08:19;17.70;99.90
22532;DHT22;11432;46.924;7.114;2022-08-21T00:10:46;17.60;99.90
22532;DHT22;11432;46.924;7.114;2022-08-21T00:13:13;17.50;99.90
22532;DHT22;11432;46.924;7.114;2022-08-21T00:15:40;17.50;99.90
22532;DHT22;11432;46.924;7.114;2022-08-21T00:18:10;17.50;99.90
22532;DHT22;11432;46.924;7.114;2022-08-21T00:20:37;17.50;99.90
22532;DHT22;11432;46.924;7.114;2022-08-21T00:23:03;17.50;99.90
22532;DHT22;11432;46.924;7.114;2022-08-21T00:25:29;17.50;99.90
22532;DHT22;11432;46.924;7.114;2022-08-21T00:27:55;17.50;99.90
22532;DHT22;11432;46.924;7.114;2022-08-21T00:30:23;17.50;99.90
22532;DHT22;11432;46.924;7.114;2022-08-21T00:32:50;17.50;99.90
22532;DHT22;11432;46.924;7.114;2022-08-21T00:35:20;17.60;99.90
22532;DHT22;11432;46.924;7.114;2022-08-21T00:37:46;17.60;99.90
22532;DHT22;11432;46.924;7.114;2022-08-21T00:40:16;17.60;99.90
22532;DHT22;11432;46.924;7.114;2022-08-21T00:42:42;17.60;99.90
22532;DHT22;11432;46.924;7.114;2022-08-21T00:45:09;17.70;99.90
22532;DHT22;11432;46.924;7.114;2022-08-21T00:47:35;17.70;99.90
22532;DHT22;11432;46.924;7.114;2022-08-21T00:50:02;17.70;99.90
22532;DHT22;11432;46.924;7.114;2022-08-21T00:52:30;17.70;99.90
22532;DHT22;11432;46.924;7.114;2022-08-21T00:54:57;17.60;99.90
22532;DHT22;11432;46.924;7.114;2022-08-21T00:57:30;17.60;99.90
22532;DHT22;11432;46.924;7.114;2022-08-21T01:00:00;17.60;99.90
22532;DHT22;11432;46.924;7.114;2022-08-21T01:02:26;17.60;99.90
22532;DHT22;11432;46.924;7.114;2022-08-21T01:04:52;17.70;99.90
22532;DHT22;11432;46.924;7.114;2022-08-21T01:07:18;17.70;99.90
22532;DHT22;11432;46.924;7.114;2022-08-21T01:09:46;17.60;99.90
22532;DHT22;11432;46.924;7.114;2022-08-21T01:12:12;17.60;99.90
22532;DHT22;11432;46.924;7.114;2022-08-21T01:14:40;17.50;99.90
22532;DHT22;11432;46.924;7.114;2022-08-21T01:17:08;17.50;99.90
22532;DHT22;11432;46.924;7.114;2022-08-21T01:19:35;17.50;99.90
22532;DHT22;11432;46.924;7.114;2022-08-21T01:22:01;17.50;99.90
22532;DHT22;11432;46.924;7.114;2022-08-21T01:24:27;17.40;99.90
22532;DHT22;11432;46.924;7.114;2022-08-21T01:26:53;17.40;99.90
22532;DHT22;11432;46.924;7.114;2022-08-21T01:32:04;17.30;99.90
22532;DHT22;11432;46.924;7.114;2022-08-21T01:34:32;17.20;99.90
22532;DHT22;11432;46.924;7.114;2022-08-21T01:36:58;17.10;99.90
22532;DHT22;11432;46.924;7.114;2022-08-21T01:39:23;17.10;99.90
22532;DHT22;11432;46.924;7.114;2022-08-21T01:41:49;17.10;99.90
22532;DHT22;11432;46.924;7.114;2022-08-21T01:44:15;17.10;99.90
22532;DHT22;11432;46.924;7.114;2022-08-21T01:46:40;17.10;99.90
22532;DHT22;11432;46.924;7.114;2022-08-21T01:49:06;17.10;99.90
22532;DHT22;11432;46.924;7.114;2022-08-21T01:51:32;17.00;99.90
22532;DHT22;11432;46.924;7.114;2022-08-21T01:53:58;17.00;99.90
22532;DHT22;11432;46.924;7.114;2022-08-21T01:56:24;17.00;99.90
22532;DHT22;11432;46.924;7.114;2022-08-21T01:58:51;17.00;99.90
22532;DHT22;11432;46.924;7.114;2022-08-21T02:01:16;16.90;99.90
22532;DHT22;11432;46.924;7.114;2022-08-21T02:03:42;16.90;99.90
22532;DHT22;11432;46.924;7.114;2022-08-21T02:06:14;16.80;99.90
22532;DHT22;11432;46.924;7.114;2022-08-21T02:08:42;16.80;99.90
22532;DHT22;11432;46.924;7.114;2022-08-21T02:11:08;16.80;99.90
22532;DHT22;11432;46.924;7.114;2022-08-21T02:13:34;16.80;99.90
22532;DHT22;11432;46.924;7.114;2022-08-21T02:15:59;16.80;99.90
22532;DHT22;11432;46.924;7.114;2022-08-21T02:18:25;16.80;99.90
22532;DHT22;11432;46.924;7.114;2022-08-21T02:20:51;16.70;99.90
22532;DHT22;11432;46.924;7.114;2022-08-21T02:23:16;16.70;99.90
22532;DHT22;11432;46.924;7.114;2022-08-21T02:25:42;16.70;99.90
22532;DHT22;11432;46.924;7.114;2022-08-21T02:28:11;16.70;99.90
22532;DHT22;11432;46.924;7.114;2022-08-21T02:30:41;16.70;99.90
22532;DHT22;11432;46.924;7.114;2022-08-21T02:33:09;16.70;99.90
22532;DHT22;11432;46.924;7.114;2022-08-21T02:35:36;16.70;99.90
22532;DHT22;11432;46.924;7.114;2022-08-21T02:38:06;16.80;99.90
22532;DHT22;11432;46.924;7.114;2022-08-21T02:40:36;16.80;99.90
22532;DHT22;11432;46.924;7.114;2022-08-21T02:43:04;16.90;99.90
22532;DHT22;11432;46.924;7.114;2022-08-21T02:45:30;16.90;99.90
22532;DHT22;11432;46.924;7.114;2022-08-21T02:47:59;16.90;99.90
22532;DHT22;11432;46.924;7.114;2022-08-21T02:50:37;16.90;99.90
22532;DHT22;11432;46.924;7.114;2022-08-21T02:53:04;17.00;99.90
22532;DHT22;11432;46.924;7.114;2022-08-21T02:55:32;17.00;99.90
22532;DHT22;11432;46.924;7.114;2022-08-21T02:57:59;17.00;99.90
22532;DHT22;11432;46.924;7.114;2022-08-21T03:00:27;17.00;99.90
22532;DHT22;11432;46.924;7.114;2022-08-21T03:02:54;17.10;99.90
22532;DHT22;11432;46.924;7.114;2022-08-21T03:05:23;17.10;99.90
22532;DHT22;11432;46.924;7.114;2022-08-21T03:07:49;17.10;99.90
22532;DHT22;11432;46.924;7.114;2022-08-21T03:10:15;17.00;99.90
22532;DHT22;11432;46.924;7.114;2022-08-21T03:12:41;17.10;99.90
22532;DHT22;11432;46.924;7.114;2022-08-21T03:15:10;17.10;99.90
22532;DHT22;11432;46.924;7.114;2022-08-21T03:17:37;17.10;99.90
22532;DHT22;11432;46.924;7.114;2022-08-21T03:20:04;17.10;99.90
22532;DHT22;11432;46.924;7.114;2022-08-21T03:22:30;17.10;99.90
22532;DHT22;11432;46.924;7.114;2022-08-21T03:24:56;17.10;99.90
22532;DHT22;11432;46.924;7.114;2022-08-21T03:27:22;17.10;99.90
22532;DHT22;11432;46.924;7.114;2022-08-21T03:29:50;17.10;99.90
22532;DHT22;11432;46.924;7.114;2022-08-21T03:32:16;17.10;99.90
22532;DHT22;11432;46.924;7.114;2022-08-21T03:34:42;17.00;99.90
22532;DHT22;11432;46.924;7.114;2022-08-21T03:37:07;17.10;99.90
22532;DHT22;11432;46.924;7.114;2022-08-21T03:39:34;17.10;99.90
22532;DHT22;11432;46.924;7.114;2022-08-21T03:42:00;17.10;99.90
22532;DHT22;11432;46.924;7.114;2022-08-21T03:44:26;17.10;99.90
22532;DHT22;11432;46.924;7.114;2022-08-21T03:46:56;17.00;99.90
22532;DHT22;11432;46.924;7.114;2022-08-21T03:49:23;17.10;99.90
22532;DHT22;11432;46.924;7.114;2022-08-21T03:51:48;17.00;99.90
22532;DHT22;11432;46.924;7.114;2022-08-21T03:54:14;17.00;99.90
22532;DHT22;11432;46.924;7.114;2022-08-21T03:56:40;17.00;99.90
22532;DHT22;11432;46.924;7.114;2022-08-21T03:59:06;17.10;99.90
22532;DHT22;11432;46.924;7.114;2022-08-21T04:01:31;17.00;99.90
22532;DHT22;11432;46.924;7.114;2022-08-21T04:03:57;17.00;99.90
22532;DHT22;11432;46.924;7.114;2022-08-21T04:06:23;17.00;99.90
22532;DHT22;11432;46.924;7.114;2022-08-21T04:08:50;17.00;99.90
22532;DHT22;11432;46.924;7.114;2022-08-21T04:11:15;17.00;99.90
22532;DHT22;11432;46.924;7.114;2022-08-21T04:13:41;17.00;99.90
22532;DHT22;11432;46.924;7.114;2022-08-21T04:16:07;17.00;99.90
22532;DHT22;11432;46.924;7.114;2022-08-21T04:18:33;17.00;99.90
22532;DHT22;11432;46.924;7.114;2022-08-21T04:20:59;17.00;99.90
22532;DHT22;11432;46.924;7.114;2022-08-21T04:23:26;17.00;99.90
22532;DHT22;11432;46.924;7.114;2022-08-21T04:25:53;17.00;99.90
22532;DHT22;11432;46.924;7.114;2022-08-21T04:28:21;17.00;99.90
22532;DHT22;11432;46.924;7.114;2022-08-21T04:30:47;17.00;99.90
22532;DHT22;11432;46.924;7.114;2022-08-21T04:33:13;17.00;99.90
22532;DHT22;11432;46.924;7.114;2022-08-21T04:35:39;17.00;99.90
22532;DHT22;11432;46.924;7.114;2022-08-21T04:38:04;16.90;99.90
22532;DHT22;11432;46.924;7.114;2022-08-21T04:40:30;16.90;99.90
22532;DHT22;11432;46.924;7.114;2022-08-21T04:43:00;16.90;99.90
22532;DHT22;11432;46.924;7.114;2022-08-21T04:45:38;16.90;99.90
22532;DHT22;11432;46.924;7.114;2022-08-21T04:48:06;16.80;99.90
22532;DHT22;11432;46.924;7.114;2022-08-21T04:50:39;16.80;99.90
22532;DHT22;11432;46.924;7.114;2022-08-21T04:53:09;16.80;99.90
22532;DHT22;11432;46.924;7.114;2022-08-21T04:55:35;16.80;99.90
22532;DHT22;11432;46.924;7.114;2022-08-21T04:58:04;16.80;99.90
22532;DHT22;11432;46.924;7.114;2022-08-21T05:00:30;16.70;99.90
22532;DHT22;11432;46.924;7.114;2022-08-21T05:02:57;16.70;99.90
22532;DHT22;11432;46.924;7.114;2022-08-21T05:05:24;16.70;99.90
22532;DHT22;11432;46.924;7.114;2022-08-21T05:07:50;16.70;99.90
22532;DHT22;11432;46.924;7.114;2022-08-21T05:10:17;16.60;99.90
22532;DHT22;11432;46.924;7.114;2022-08-21T05:12:43;16.70;99.90
22532;DHT22;11432;46.924;7.114;2022-08-21T05:15:11;16.70;99.90
22532;DHT22;11432;46.924;7.114;2022-08-21T05:17:38;16.60;99.90
22532;DHT22;11432;46.924;7.114;2022-08-21T05:20:04;16.60;99.90
22532;DHT22;11432;46.924;7.114;2022-08-21T05:22:30;16.60;99.90
22532;DHT22;11432;46.924;7.114;2022-08-21T05:24:56;16.60;99.90
22532;DHT22;11432;46.924;7.114;2022-08-21T05:27:22;16.60;99.90
22532;DHT22;11432;46.924;7.114;2022-08-21T05:29:48;16.60;99.90
22532;DHT22;11432;46.924;7.114;2022-08-21T05:32:14;16.60;99.90
22532;DHT22;11432;46.924;7.114;2022-08-21T05:34:39;16.60;99.90
22532;DHT22;11432;46.924;7.114;2022-08-21T05:37:05;16.60;99.90
22532;DHT22;11432;46.924;7.114;2022-08-21T05:39:31;16.60;99.90
22532;DHT22;11432;46.924;7.114;2022-08-21T05:41:57;16.70;99.90
22532;DHT22;11432;46.924;7.114;2022-08-21T05:44:23;16.70;99.90
22532;DHT22;11432;46.924;7.114;2022-08-21T05:46:48;16.70;99.90
22532;DHT22;11432;46.924;7.114;2022-08-21T05:49:14;16.70;99.90
22532;DHT22;11432;46.924;7.114;2022-08-21T05:51:41;16.80;99.90
22532;DHT22;11432;46.924;7.114;2022-08-21T05:54:07;16.90;99.90
22532;DHT22;11432;46.924;7.114;2022-08-21T05:56:32;17.00;99.90
22532;DHT22;11432;46.924;7.114;2022-08-21T05:58:58;17.00;99.90
22532;DHT22;11432;46.924;7.114;2022-08-21T06:01:24;17.10;99.90
22532;DHT22;11432;46.924;7.114;2022-08-21T06:03:50;17.20;99.90
22532;DHT22;11432;46.924;7.114;2022-08-21T06:06:17;17.30;99.90
22532;DHT22;11432;46.924;7.114;2022-08-21T06:08:42;17.40;99.90
22532;DHT22;11432;46.924;7.114;2022-08-21T06:11:09;17.50;99.90
22532;DHT22;11432;46.924;7.114;2022-08-21T06:13:36;17.50;99.90
22532;DHT22;11432;46.924;7.114;2022-08-21T06:16:07;17.60;99.90
22532;DHT22;11432;46.924;7.114;2022-08-21T06:18:34;17.70;99.90
22532;DHT22;11432;46.924;7.114;2022-08-21T06:20:59;17.90;99.90
22532;DHT22;11432;46.924;7.114;2022-08-21T06:23:25;17.90;99.90
22532;DHT22;11432;46.924;7.114;2022-08-21T06:25:51;17.70;99.90
22532;DHT22;11432;46.924;7.114;2022-08-21T06:28:18;17.60;99.90
22532;DHT22;11432;46.924;7.114;2022-08-21T06:30:43;17.60;99.90
22532;DHT22;11432;46.924;7.114;2022-08-21T06:33:09;17.60;99.90
22532;DHT22;11432;46.924;7.114;2022-08-21T06:35:35;17.60;99.90
22532;DHT22;11432;46.924;7.114;2022-08-21T06:38:01;17.60;99.90
22532;DHT22;11432;46.924;7.114;2022-08-21T06:40:27;17.60;99.90
22532;DHT22;11432;46.924;7.114;2022-08-21T06:42:53;17.40;99.90
22532;DHT22;11432;46.924;7.114;2022-08-21T06:45:20;17.50;99.90
22532;DHT22;11432;46.924;7.114;2022-08-21T06:47:46;17.40;99.90
22532;DHT22;11432;46.924;7.114;2022-08-21T06:50:11;17.50;99.90
22532;DHT22;11432;46.924;7.114;2022-08-21T06:52:38;17.30;99.90
22532;DHT22;11432;46.924;7.114;2022-08-21T06:55:06;17.20;99.90
22532;DHT22;11432;46.924;7.114;2022-08-21T06:57:32;17.10;99.90
22532;DHT22;11432;46.924;7.114;2022-08-21T06:59:58;17.30;99.90
22532;DHT22;11432;46.924;7.114;2022-08-21T07:02:24;17.40;99.90
22532;DHT22;11432;46.924;7.114;2022-08-21T07:04:50;17.50;99.90
22532;DHT22;11432;46.924;7.114;2022-08-21T07:07:16;17.60;99.90
22532;DHT22;11432;46.924;7.114;2022-08-21T07:09:42;17.60;99.90
22532;DHT22;11432;46.924;7.114;2022-08-21T07:12:08;17.70;99.90
22532;DHT22;11432;46.924;7.114;2022-08-21T07:14:35;17.80;99.90
22532;DHT22;11432;46.924;7.114;2022-08-21T07:17:00;17.80;99.90
22532;DHT22;11432;46.924;7.114;2022-08-21T07:19:26;17.80;99.90
22532;DHT22;11432;46.924;7.114;2022-08-21T07:21:56;18.00;99.90
22532;DHT22;11432;46.924;7.114;2022-08-21T07:24:22;18.10;99.90
22532;DHT22;11432;46.924;7.114;2022-08-21T07:26:48;18.30;99.90
22532;DHT22;11432;46.924;7.114;2022-08-21T07:29:14;18.30;99.90
22532;DHT22;11432;46.924;7.114;2022-08-21T07:31:40;18.40;99.90
22532;DHT22;11432;46.924;7.114;2022-08-21T07:34:05;18.50;99.90
22532;DHT22;11432;46.924;7.114;2022-08-21T07:36:31;18.70;99.90
22532;DHT22;11432;46.924;7.114;2022-08-21T07:38:57;18.90;99.90
22532;DHT22;11432;46.924;7.114;2022-08-21T07:41:26;19.00;99.90
22532;DHT22;11432;46.924;7.114;2022-08-21T07:43:53;19.00;99.90
22532;DHT22;11432;46.924;7.114;2022-08-21T07:46:19;19.00;99.90
22532;DHT22;11432;46.924;7.114;2022-08-21T07:48:45;19.00;99.90
22532;DHT22;11432;46.924;7.114;2022-08-21T07:51:12;19.10;99.90
22532;DHT22;11432;46.924;7.114;2022-08-21T07:53:38;19.30;99.90
22532;DHT22;11432;46.924;7.114;2022-08-21T07:56:05;19.30;99.90
22532;DHT22;11432;46.924;7.114;2022-08-21T07:58:32;19.50;99.90
22532;DHT22;11432;46.924;7.114;2022-08-21T08:00:58;19.60;99.90
22532;DHT22;11432;46.924;7.114;2022-08-21T08:03:24;19.70;99.90
22532;DHT22;11432;46.924;7.114;2022-08-21T08:05:50;19.80;99.90
22532;DHT22;11432;46.924;7.114;2022-08-21T08:08:16;19.90;99.90
22532;DHT22;11432;46.924;7.114;2022-08-21T08:10:42;20.00;99.90
22532;DHT22;11432;46.924;7.114;2022-08-21T08:13:07;20.20;99.90
22532;DHT22;11432;46.924;7.114;2022-08-21T08:15:34;20.40;99.90
22532;DHT22;11432;46.924;7.114;2022-08-21T08:17:59;20.20;99.90
22532;DHT22;11432;46.924;7.114;2022-08-21T08:20:26;20.10;99.90
22532;DHT22;11432;46.924;7.114;2022-08-21T08:22:53;20.00;99.90
22532;DHT22;11432;46.924;7.114;2022-08-21T08:25:20;20.00;99.90
22532;DHT22;11432;46.924;7.114;2022-08-21T08:27:46;20.10;99.90
22532;DHT22;11432;46.924;7.114;2022-08-21T08:30:13;20.00;99.90
22532;DHT22;11432;46.924;7.114;2022-08-21T08:32:39;19.90;99.90
22532;DHT22;11432;46.924;7.114;2022-08-21T08:35:06;19.80;99.90
22532;DHT22;11432;46.924;7.114;2022-08-21T08:37:33;19.90;99.90
22532;DHT22;11432;46.924;7.114;2022-08-21T08:39:59;20.10;99.90
22532;DHT22;11432;46.924;7.114;2022-08-21T08:42:28;20.50;99.90
22532;DHT22;11432;46.924;7.114;2022-08-21T08:45:03;20.70;99.90
22532;DHT22;11432;46.924;7.114;2022-08-21T08:47:31;20.80;99.90
22532;DHT22;11432;46.924;7.114;2022-08-21T08:52:35;20.50;99.90
22532;DHT22;11432;46.924;7.114;2022-08-21T08:55:05;20.60;99.90
22532;DHT22;11432;46.924;7.114;2022-08-21T08:57:32;20.50;99.90
22532;DHT22;11432;46.924;7.114;2022-08-21T09:00:01;20.60;99.90
22532;DHT22;11432;46.924;7.114;2022-08-21T09:02:27;20.80;99.90
22532;DHT22;11432;46.924;7.114;2022-08-21T09:04:54;20.60;99.90
22532;DHT22;11432;46.924;7.114;2022-08-21T09:15:05;20.70;99.90
22532;DHT22;11432;46.924;7.114;2022-08-21T09:17:52;20.80;99.90
22532;DHT22;11432;46.924;7.114;2022-08-21T09:25:59;20.90;99.90
22532;DHT22;11432;46.924;7.114;2022-08-21T09:28:31;21.10;1.00
22532;DHT22;11432;46.924;7.114;2022-08-21T09:30:57;21.10;1.00
22532;DHT22;11432;46.924;7.114;2022-08-21T09:33:28;21.40;1.00
22532;DHT22;11432;46.924;7.114;2022-08-21T09:35:55;21.40;1.00
22532;DHT22;11432;46.924;7.114;2022-08-21T09:38:32;21.40;1.00
22532;DHT22;11432;46.924;7.114;2022-08-21T09:41:02;21.50;1.00
22532;DHT22;11432;46.924;7.114;2022-08-21T09:43:29;21.70;1.00
22532;DHT22;11432;46.924;7.114;2022-08-21T09:46:22;22.10;1.00
22532;DHT22;11432;46.924;7.114;2022-08-21T09:48:51;22.40;1.00
22532;DHT22;11432;46.924;7.114;2022-08-21T09:51:25;22.20;1.00
22532;DHT22;11432;46.924;7.114;2022-08-21T09:56:36;22.30;1.00
22532;DHT22;11432;46.924;7.114;2022-08-21T09:59:31;22.00;1.00
22532;DHT22;11432;46.924;7.114;2022-08-21T10:02:00;21.70;1.00
22532;DHT22;11432;46.924;7.114;2022-08-21T10:04:36;21.60;1.00
22532;DHT22;11432;46.924;7.114;2022-08-21T10:07:13;22.00;1.00
22532;DHT22;11432;46.924;7.114;2022-08-21T10:09:40;22.50;1.00
22532;DHT22;11432;46.924;7.114;2022-08-21T10:12:16;22.80;1.00
22532;DHT22;11432;46.924;7.114;2022-08-21T10:20:27;23.50;1.00
22532;DHT22;11432;46.924;7.114;2022-08-21T10:23:23;23.50;1.00
22532;DHT22;11432;46.924;7.114;2022-08-21T10:29:06;23.60;1.00
22532;DHT22;11432;46.924;7.114;2022-08-21T10:34:31;23.30;1.00
22532;DHT22;11432;46.924;7.114;2022-08-21T10:37:04;23.60;1.00
22532;DHT22;11432;46.924;7.114;2022-08-21T10:48:28;23.00;1.00
22532;DHT22;11432;46.924;7.114;2022-08-21T10:51:04;23.40;1.00
22532;DHT22;11432;46.924;7.114;2022-08-21T10:53:41;24.10;1.00
22532;DHT22;11432;46.924;7.114;2022-08-21T10:56:21;24.50;1.00
22532;DHT22;11432;46.924;7.114;2022-08-21T11:02:29;25.00;99.90
22532;DHT22;11432;46.924;7.114;2022-08-21T11:05:01;25.40;99.90
22532;DHT22;11432;46.924;7.114;2022-08-21T11:07:36;25.50;99.90
22532;DHT22;11432;46.924;7.114;2022-08-21T11:10:13;25.30;1.00
22532;DHT22;11432;46.924;7.114;2022-08-21T11:12:44;25.40;99.90
22532;DHT22;11432;46.924;7.114;2022-08-21T11:17:46;25.20;99.90
22532;DHT22;11432;46.924;7.114;2022-08-21T11:20:20;25.20;1.00
22532;DHT22;11432;46.924;7.114;2022-08-21T11:22:52;25.10;28.10
22532;DHT22;11432;46.924;7.114;2022-08-21T11:25:29;25.30;1.00
22532;DHT22;11432;46.924;7.114;2022-08-21T11:28:03;25.40;1.00
22532;DHT22;11432;46.924;7.114;2022-08-21T11:33:34;25.40;1.00
22532;DHT22;11432;46.924;7.114;2022-08-21T11:52:18;25.90;1.00
22532;DHT22;11432;46.924;7.114;2022-08-21T11:55:00;25.90;1.00
22532;DHT22;11432;46.924;7.114;2022-08-21T11:57:47;26.00;1.00
22532;DHT22;11432;46.924;7.114;2022-08-21T12:00:44;26.10;1.00
22532;DHT22;11432;46.924;7.114;2022-08-21T12:03:29;26.20;1.00
22532;DHT22;11432;46.924;7.114;2022-08-21T12:06:02;26.30;1.00
22532;DHT22;11432;46.924;7.114;2022-08-21T12:08:33;26.30;1.00
22532;DHT22;11432;46.924;7.114;2022-08-21T12:19:07;27.30;99.90
22532;DHT22;11432;46.924;7.114;2022-08-21T12:21:34;27.30;1.00
22532;DHT22;11432;46.924;7.114;2022-08-21T12:27:00;27.40;1.00
22532;DHT22;11432;46.924;7.114;2022-08-21T12:29:29;27.90;1.00
22532;DHT22;11432;46.924;7.114;2022-08-21T12:34:40;28.50;1.00
22532;DHT22;11432;46.924;7.114;2022-08-21T12:39:44;28.50;1.00
22532;DHT22;11432;46.924;7.114;2022-08-21T12:42:21;28.90;1.00
22532;DHT22;11432;46.924;7.114;2022-08-21T12:44:55;29.10;1.00
22532;DHT22;11432;46.924;7.114;2022-08-21T12:47:29;29.10;1.00
22532;DHT22;11432;46.924;7.114;2022-08-21T12:50:07;29.40;1.00
22532;DHT22;11432;46.924;7.114;2022-08-21T12:52:38;29.40;1.00
22532;DHT22;11432;46.924;7.114;2022-08-21T12:55:07;29.40;1.00
22532;DHT22;11432;46.924;7.114;2022-08-21T12:57:36;29.20;1.00
22532;DHT22;11432;46.924;7.114;2022-08-21T13:00:05;29.40;1.00
22532;DHT22;11432;46.924;7.114;2022-08-21T13:02:37;29.90;1.00
22532;DHT22;11432;46.924;7.114;2022-08-21T13:05:06;29.70;1.00
22532;DHT22;11432;46.924;7.114;2022-08-21T13:07:35;29.70;1.00
22532;DHT22;11432;46.924;7.114;2022-08-21T13:10:14;29.80;1.00
22532;DHT22;11432;46.924;7.114;2022-08-21T13:12:42;29.80;1.00
22532;DHT22;11432;46.924;7.114;2022-08-21T13:15:08;30.30;1.00
22532;DHT22;11432;46.924;7.114;2022-08-21T13:17:36;30.40;1.00
22532;DHT22;11432;46.924;7.114;2022-08-21T13:20:10;30.40;1.00
22532;DHT22;11432;46.924;7.114;2022-08-21T13:22:44;30.20;1.00
22532;DHT22;11432;46.924;7.114;2022-08-21T13:25:12;29.80;1.00
22532;DHT22;11432;46.924;7.114;2022-08-21T13:27:39;30.30;1.00
22532;DHT22;11432;46.924;7.114;2022-08-21T13:30:12;30.70;1.00
22532;DHT22;11432;46.924;7.114;2022-08-21T13:32:44;30.80;1.00
22532;DHT22;11432;46.924;7.114;2022-08-21T13:37:58;30.90;1.00
22532;DHT22;11432;46.924;7.114;2022-08-21T13:40:30;31.10;1.00
22532;DHT22;11432;46.924;7.114;2022-08-21T13:42:57;30.90;1.00
22532;DHT22;11432;46.924;7.114;2022-08-21T13:45:31;30.20;1.00
22532;DHT22;11432;46.924;7.114;2022-08-21T13:48:00;30.20;1.00
22532;DHT22;11432;46.924;7.114;2022-08-21T13:50:26;30.00;1.00
22532;DHT22;11432;46.924;7.114;2022-08-21T13:53:04;30.20;1.00
22532;DHT22;11432;46.924;7.114;2022-08-21T13:55:42;30.20;1.00
22532;DHT22;11432;46.924;7.114;2022-08-21T13:58:09;30.40;1.00
22532;DHT22;11432;46.924;7.114;2022-08-21T14:00:45;31.10;1.00
22532;DHT22;11432;46.924;7.114;2022-08-21T14:03:15;31.30;1.00
22532;DHT22;11432;46.924;7.114;2022-08-21T14:05:48;31.60;1.00
22532;DHT22;11432;46.924;7.114;2022-08-21T14:08:48;31.70;1.00
22532;DHT22;11432;46.924;7.114;2022-08-21T14:11:14;32.20;1.00
22532;DHT22;11432;46.924;7.114;2022-08-21T14:13:43;31.20;1.00
22532;DHT22;11432;46.924;7.114;2022-08-21T14:16:20;31.60;1.00
22532;DHT22;11432;46.924;7.114;2022-08-21T14:19:07;31.80;1.00
22532;DHT22;11432;46.924;7.114;2022-08-21T14:21:36;31.90;1.00
22532;DHT22;11432;46.924;7.114;2022-08-21T14:26:51;31.00;1.00
22532;DHT22;11432;46.924;7.114;2022-08-21T14:29:20;31.10;1.00
22532;DHT22;11432;46.924;7.114;2022-08-21T14:31:57;30.70;1.00
22532;DHT22;11432;46.924;7.114;2022-08-21T14:34:28;30.90;1.00
22532;DHT22;11432;46.924;7.114;2022-08-21T14:36:55;31.00;1.00
22532;DHT22;11432;46.924;7.114;2022-08-21T14:39:21;30.70;1.00
22532;DHT22;11432;46.924;7.114;2022-08-21T14:41:47;30.00;1.00
22532;DHT22;11432;46.924;7.114;2022-08-21T14:44:15;30.50;1.00
22532;DHT22;11432;46.924;7.114;2022-08-21T14:46:41;30.70;1.00
22532;DHT22;11432;46.924;7.114;2022-08-21T14:49:07;30.00;1.00
22532;DHT22;11432;46.924;7.114;2022-08-21T14:51:33;29.60;1.00
22532;DHT22;11432;46.924;7.114;2022-08-21T14:53:59;29.60;1.00
22532;DHT22;11432;46.924;7.114;2022-08-21T14:56:24;29.40;1.00
22532;DHT22;11432;46.924;7.114;2022-08-21T14:58:51;29.20;1.00
22532;DHT22;11432;46.924;7.114;2022-08-21T15:01:19;29.50;1.00
22532;DHT22;11432;46.924;7.114;2022-08-21T15:03:45;29.70;1.00
22532;DHT22;11432;46.924;7.114;2022-08-21T15:06:12;29.80;1.00
22532;DHT22;11432;46.924;7.114;2022-08-21T15:08:38;30.10;1.00
22532;DHT22;11432;46.924;7.114;2022-08-21T15:11:05;29.90;1.00
22532;DHT22;11432;46.924;7.114;2022-08-21T15:13:32;29.80;1.00
22532;DHT22;11432;46.924;7.114;2022-08-21T15:15:58;29.70;1.00
22532;DHT22;11432;46.924;7.114;2022-08-21T15:18:26;29.70;1.00
22532;DHT22;11432;46.924;7.114;2022-08-21T15:20:52;30.80;1.00
22532;DHT22;11432;46.924;7.114;2022-08-21T15:23:18;31.60;1.00
22532;DHT22;11432;46.924;7.114;2022-08-21T15:25:46;32.70;1.00
22532;DHT22;11432;46.924;7.114;2022-08-21T15:28:14;33.20;1.00
22532;DHT22;11432;46.924;7.114;2022-08-21T15:30:41;33.00;1.00
22532;DHT22;11432;46.924;7.114;2022-08-21T15:33:07;33.10;1.00
22532;DHT22;11432;46.924;7.114;2022-08-21T15:35:34;33.60;1.00
22532;DHT22;11432;46.924;7.114;2022-08-21T15:38:00;33.40;1.00
22532;DHT22;11432;46.924;7.114;2022-08-21T15:40:25;33.20;1.00
22532;DHT22;11432;46.924;7.114;2022-08-21T15:42:57;32.70;1.00
22532;DHT22;11432;46.924;7.114;2022-08-21T15:45:24;31.70;1.00
22532;DHT22;11432;46.924;7.114;2022-08-21T15:47:49;30.80;1.00
22532;DHT22;11432;46.924;7.114;2022-08-21T15:50:15;29.80;1.00
22532;DHT22;11432;46.924;7.114;2022-08-21T15:52:41;29.30;1.00
22532;DHT22;11432;46.924;7.114;2022-08-21T15:55:08;29.50;1.00
22532;DHT22;11432;46.924;7.114;2022-08-21T15:57:35;28.70;1.00
22532;DHT22;11432;46.924;7.114;2022-08-21T16:00:22;28.10;1.00
22532;DHT22;11432;46.924;7.114;2022-08-21T16:02:51;27.70;1.00
22532;DHT22;11432;46.924;7.114;2022-08-21T16:05:18;27.90;1.00
22532;DHT22;11432;46.924;7.114;2022-08-21T16:07:45;28.20;1.00
22532;DHT22;11432;46.924;7.114;2022-08-21T16:10:14;28.70;1.00
22532;DHT22;11432;46.924;7.114;2022-08-21T16:12:50;28.20;1.00
22532;DHT22;11432;46.924;7.114;2022-08-21T16:15:17;28.60;1.00
22532;DHT22;11432;46.924;7.114;2022-08-21T16:17:44;28.90;1.00
22532;DHT22;11432;46.924;7.114;2022-08-21T16:20:15;28.40;1.00
22532;DHT22;11432;46.924;7.114;2022-08-21T16:22:41;27.50;1.00
22532;DHT22;11432;46.924;7.114;2022-08-21T16:25:07;27.00;99.90
22532;DHT22;11432;46.924;7.114;2022-08-21T16:27:34;26.70;1.00
22532;DHT22;11432;46.924;7.114;2022-08-21T16:30:00;26.50;1.00
22532;DHT22;11432;46.924;7.114;2022-08-21T16:32:27;26.60;1.00
22532;DHT22;11432;46.924;7.114;2022-08-21T16:34:54;26.60;1.00
22532;DHT22;11432;46.924;7.114;2022-08-21T16:37:19;26.60;1.00
22532;DHT22;11432;46.924;7.114;2022-08-21T16:39:46;26.40;1.00
22532;DHT22;11432;46.924;7.114;2022-08-21T16:42:16;26.40;99.90
22532;DHT22;11432;46.924;7.114;2022-08-21T16:44:42;26.40;92.20
22532;DHT22;11432;46.924;7.114;2022-08-21T16:47:08;26.30;1.00
22532;DHT22;11432;46.924;7.114;2022-08-21T16:49:34;26.50;1.00
22532;DHT22;11432;46.924;7.114;2022-08-21T16:51:59;26.50;1.00
22532;DHT22;11432;46.924;7.114;2022-08-21T16:54:25;26.50;1.00
22532;DHT22;11432;46.924;7.114;2022-08-21T16:56:51;26.40;21.50
22532;DHT22;11432;46.924;7.114;2022-08-21T16:59:17;26.40;1.00
22532;DHT22;11432;46.924;7.114;2022-08-21T17:01:43;26.30;99.90
22532;DHT22;11432;46.924;7.114;2022-08-21T17:04:09;26.40;1.00
22532;DHT22;11432;46.924;7.114;2022-08-21T17:06:34;26.50;99.90
22532;DHT22;11432;46.924;7.114;2022-08-21T17:09:00;26.80;1.00
22532;DHT22;11432;46.924;7.114;2022-08-21T17:11:35;27.00;1.00
22532;DHT22;11432;46.924;7.114;2022-08-21T17:14:20;26.60;99.90